Overview Statistics Trail Chart Weather Telemetry Raw packets
 

This is the latest recevied weather packets stored in our database for station/object DL2GFH-3. If no packets are shown the sender has not sent any weather packets the latest 10 day(s).

<< 15 16 17 18 19 20 21 >>
Time Temp. Humidity Pressure Rain* Wind** Luminosity Snow
1777361999 26.11° C 20% 1015.7 hPa - - - -
1777361094 25° C 21% 1015.7 hPa - - - -
1777360188 25° C 21% 1015.7 hPa - - - -
1777359283 23.89° C 22% 1015.8 hPa - - - -
1777358377 24.44° C 21% 1015.8 hPa - - - -
1777357472 25° C 20% 1015.8 hPa - - - -
1777356566 23.89° C 22% 1015.9 hPa - - - -
1777355661 22.78° C 22% 1016 hPa - - - -
1777354756 23.33° C 21% 1015.9 hPa - - - -
1777353850 23.33° C 22% 1015.9 hPa - - - -
1777352945 22.78° C 22% 1015.7 hPa - - - -
1777352039 22.22° C 23% 1015.7 hPa - - - -
1777351134 22.78° C 22% 1015.6 hPa - - - -
1777350228 24.44° C 21% 1015.4 hPa - - - -
1777349323 23.89° C 22% 1015.6 hPa - - - -
1777348418 21.67° C 24% 1015.7 hPa - - - -
1777347512 20° C 26% 1016 hPa - - - -
1777346607 21.11° C 25% 1016.1 hPa - - - -
1777345701 22.78° C 23% 1016 hPa - - - -
1777344796 21.67° C 25% 1016.2 hPa - - - -
1777343891 17.22° C 30% 1016.4 hPa - - - -
1777342985 17.22° C 30% 1016.5 hPa - - - -
1777342080 17.78° C 30% 1016.7 hPa - - - -
1777341174 17.78° C 30% 1016.7 hPa - - - -
1777340269 17.78° C 30% 1016.9 hPa - - - -

* Rain since midnight (hover to see other rain measurements)
** Current wind speed in m/s (hover to see current wind gust speed)